sensor_id;sensor_type;location;lat;lon;timestamp;temperature;humidity
29775;DHT22;16676;51.202;6.774;2023-02-28T00:01:59;18.30;59.50
29775;DHT22;16676;51.202;6.774;2023-02-28T00:06:02;18.30;59.60
29775;DHT22;16676;51.202;6.774;2023-02-28T00:10:06;18.30;59.70
29775;DHT22;16676;51.202;6.774;2023-02-28T00:14:09;18.30;59.60
29775;DHT22;16676;51.202;6.774;2023-02-28T00:18:11;18.20;59.80
29775;DHT22;16676;51.202;6.774;2023-02-28T00:22:14;18.20;59.90
29775;DHT22;16676;51.202;6.774;2023-02-28T00:26:17;18.20;59.90
29775;DHT22;16676;51.202;6.774;2023-02-28T00:30:21;18.10;59.90
29775;DHT22;16676;51.202;6.774;2023-02-28T00:34:24;18.10;59.90
29775;DHT22;16676;51.202;6.774;2023-02-28T00:38:25;18.10;60.10
29775;DHT22;16676;51.202;6.774;2023-02-28T00:42:29;18.00;60.30
29775;DHT22;16676;51.202;6.774;2023-02-28T00:46:31;18.00;60.40
29775;DHT22;16676;51.202;6.774;2023-02-28T00:50:33;18.00;60.30
29775;DHT22;16676;51.202;6.774;2023-02-28T00:54:35;18.00;60.60
29775;DHT22;16676;51.202;6.774;2023-02-28T00:58:38;17.90;60.80
29775;DHT22;16676;51.202;6.774;2023-02-28T01:02:40;17.90;60.70
29775;DHT22;16676;51.202;6.774;2023-02-28T01:06:42;17.90;60.90
29775;DHT22;16676;51.202;6.774;2023-02-28T01:10:44;17.80;60.90
29775;DHT22;16676;51.202;6.774;2023-02-28T01:14:48;17.80;61.20
29775;DHT22;16676;51.202;6.774;2023-02-28T01:18:49;17.80;61.40
29775;DHT22;16676;51.202;6.774;2023-02-28T01:22:51;17.70;61.40
29775;DHT22;16676;51.202;6.774;2023-02-28T01:26:53;17.70;61.70
29775;DHT22;16676;51.202;6.774;2023-02-28T01:30:57;17.60;61.80
29775;DHT22;16676;51.202;6.774;2023-02-28T01:34:58;17.60;62.00
29775;DHT22;16676;51.202;6.774;2023-02-28T01:39:00;17.60;61.80
29775;DHT22;16676;51.202;6.774;2023-02-28T01:43:02;17.60;61.90
29775;DHT22;16676;51.202;6.774;2023-02-28T01:47:06;17.60;61.90
29775;DHT22;16676;51.202;6.774;2023-02-28T01:51:10;17.60;61.80
29775;DHT22;16676;51.202;6.774;2023-02-28T01:55:13;17.60;61.90
29775;DHT22;16676;51.202;6.774;2023-02-28T01:59:21;17.50;62.10
29775;DHT22;16676;51.202;6.774;2023-02-28T02:03:28;17.50;62.20
29775;DHT22;16676;51.202;6.774;2023-02-28T02:07:33;17.50;62.20
29775;DHT22;16676;51.202;6.774;2023-02-28T02:11:37;17.50;62.20
29775;DHT22;16676;51.202;6.774;2023-02-28T02:15:43;17.50;62.10
29775;DHT22;16676;51.202;6.774;2023-02-28T02:20:32;17.50;62.10
29775;DHT22;16676;51.202;6.774;2023-02-28T02:24:54;17.40;62.20
29775;DHT22;16676;51.202;6.774;2023-02-28T02:34:01;17.40;62.30
29775;DHT22;16676;51.202;6.774;2023-02-28T02:38:09;17.40;62.60
29775;DHT22;16676;51.202;6.774;2023-02-28T02:42:15;17.30;62.40
29775;DHT22;16676;51.202;6.774;2023-02-28T02:46:21;17.30;62.50
29775;DHT22;16676;51.202;6.774;2023-02-28T02:50:29;17.30;62.40
29775;DHT22;16676;51.202;6.774;2023-02-28T02:54:36;17.30;62.60
29775;DHT22;16676;51.202;6.774;2023-02-28T02:58:41;17.30;62.50
29775;DHT22;16676;51.202;6.774;2023-02-28T03:02:46;17.30;62.70
29775;DHT22;16676;51.202;6.774;2023-02-28T03:06:52;17.30;62.90
29775;DHT22;16676;51.202;6.774;2023-02-28T03:10:58;17.20;62.80
29775;DHT22;16676;51.202;6.774;2023-02-28T03:15:08;17.20;63.00
29775;DHT22;16676;51.202;6.774;2023-02-28T03:19:30;17.20;62.90
29775;DHT22;16676;51.202;6.774;2023-02-28T03:23:43;17.20;62.80
29775;DHT22;16676;51.202;6.774;2023-02-28T03:27:57;17.20;62.90
29775;DHT22;16676;51.202;6.774;2023-02-28T03:32:05;17.10;62.90
29775;DHT22;16676;51.202;6.774;2023-02-28T03:36:14;17.10;63.20
29775;DHT22;16676;51.202;6.774;2023-02-28T03:40:21;17.20;63.20
29775;DHT22;16676;51.202;6.774;2023-02-28T03:44:27;17.10;63.10
29775;DHT22;16676;51.202;6.774;2023-02-28T03:48:34;17.10;63.30
29775;DHT22;16676;51.202;6.774;2023-02-28T03:52:44;17.10;63.40
29775;DHT22;16676;51.202;6.774;2023-02-28T03:56:50;17.00;63.30
29775;DHT22;16676;51.202;6.774;2023-02-28T04:00:57;17.10;63.30
29775;DHT22;16676;51.202;6.774;2023-02-28T04:05:01;17.10;64.20
29775;DHT22;16676;51.202;6.774;2023-02-28T04:09:04;17.00;63.30
29775;DHT22;16676;51.202;6.774;2023-02-28T04:13:08;17.00;63.30
29775;DHT22;16676;51.202;6.774;2023-02-28T04:17:10;17.00;63.40
29775;DHT22;16676;51.202;6.774;2023-02-28T04:21:12;17.00;63.40
29775;DHT22;16676;51.202;6.774;2023-02-28T04:25:14;17.00;63.60
29775;DHT22;16676;51.202;6.774;2023-02-28T04:29:22;17.00;63.60
29775;DHT22;16676;51.202;6.774;2023-02-28T04:33:24;16.90;63.60
29775;DHT22;16676;51.202;6.774;2023-02-28T04:37:26;16.90;63.60
29775;DHT22;16676;51.202;6.774;2023-02-28T04:41:29;16.90;63.60
29775;DHT22;16676;51.202;6.774;2023-02-28T04:45:32;16.90;63.60
29775;DHT22;16676;51.202;6.774;2023-02-28T04:49:34;16.90;63.60
29775;DHT22;16676;51.202;6.774;2023-02-28T04:53:37;16.90;63.70
29775;DHT22;16676;51.202;6.774;2023-02-28T04:57:39;16.90;63.60
29775;DHT22;16676;51.202;6.774;2023-02-28T05:01:46;16.80;63.60
29775;DHT22;16676;51.202;6.774;2023-02-28T05:05:49;16.80;63.70
29775;DHT22;16676;51.202;6.774;2023-02-28T05:09:50;16.80;63.60
29775;DHT22;16676;51.202;6.774;2023-02-28T05:13:53;16.80;63.60
29775;DHT22;16676;51.202;6.774;2023-02-28T05:17:57;16.80;63.60
29775;DHT22;16676;51.202;6.774;2023-02-28T05:21:59;16.80;63.70
29775;DHT22;16676;51.202;6.774;2023-02-28T05:26:01;16.80;63.60
29775;DHT22;16676;51.202;6.774;2023-02-28T05:30:03;16.80;63.60
29775;DHT22;16676;51.202;6.774;2023-02-28T05:34:08;16.80;63.70
29775;DHT22;16676;51.202;6.774;2023-02-28T05:38:11;16.80;63.80
29775;DHT22;16676;51.202;6.774;2023-02-28T05:42:13;16.70;63.80
29775;DHT22;16676;51.202;6.774;2023-02-28T05:46:15;16.80;63.70
29775;DHT22;16676;51.202;6.774;2023-02-28T05:50:19;16.80;64.10
29775;DHT22;16676;51.202;6.774;2023-02-28T05:54:21;16.70;64.50
29775;DHT22;16676;51.202;6.774;2023-02-28T05:58:23;16.70;64.50
29775;DHT22;16676;51.202;6.774;2023-02-28T06:02:26;16.70;64.70
29775;DHT22;16676;51.202;6.774;2023-02-28T06:06:30;16.70;64.50
29775;DHT22;16676;51.202;6.774;2023-02-28T06:10:32;16.70;64.60
29775;DHT22;16676;51.202;6.774;2023-02-28T06:14:34;16.70;64.60
29775;DHT22;16676;51.202;6.774;2023-02-28T06:18:36;16.70;64.90
29775;DHT22;16676;51.202;6.774;2023-02-28T06:22:40;16.70;64.80
29775;DHT22;16676;51.202;6.774;2023-02-28T06:26:42;16.70;64.80
29775;DHT22;16676;51.202;6.774;2023-02-28T06:30:43;16.80;64.80
29775;DHT22;16676;51.202;6.774;2023-02-28T06:34:45;16.80;64.80
29775;DHT22;16676;51.202;6.774;2023-02-28T06:38:49;16.80;64.80
29775;DHT22;16676;51.202;6.774;2023-02-28T06:42:55;16.80;64.60
29775;DHT22;16676;51.202;6.774;2023-02-28T06:46:57;16.90;64.40
29775;DHT22;16676;51.202;6.774;2023-02-28T06:51:03;17.00;64.20
29775;DHT22;16676;51.202;6.774;2023-02-28T06:55:08;17.30;63.30
29775;DHT22;16676;51.202;6.774;2023-02-28T06:59:10;17.70;61.70
29775;DHT22;16676;51.202;6.774;2023-02-28T07:03:12;18.10;60.00
29775;DHT22;16676;51.202;6.774;2023-02-28T07:07:15;18.50;58.70
29775;DHT22;16676;51.202;6.774;2023-02-28T07:11:19;18.80;57.50
29775;DHT22;16676;51.202;6.774;2023-02-28T07:15:23;19.10;57.10
29775;DHT22;16676;51.202;6.774;2023-02-28T07:19:25;19.50;55.50
29775;DHT22;16676;51.202;6.774;2023-02-28T07:23:27;19.60;53.90
29775;DHT22;16676;51.202;6.774;2023-02-28T07:27:30;18.10;44.60
29775;DHT22;16676;51.202;6.774;2023-02-28T07:31:32;17.80;40.70
29775;DHT22;16676;51.202;6.774;2023-02-28T07:35:34;17.20;39.40
29775;DHT22;16676;51.202;6.774;2023-02-28T07:39:36;16.80;36.80
29775;DHT22;16676;51.202;6.774;2023-02-28T07:43:39;16.70;38.30
29775;DHT22;16676;51.202;6.774;2023-02-28T07:47:42;16.80;39.40
29775;DHT22;16676;51.202;6.774;2023-02-28T07:51:44;17.60;42.30
29775;DHT22;16676;51.202;6.774;2023-02-28T07:55:46;18.30;42.80
29775;DHT22;16676;51.202;6.774;2023-02-28T07:59:49;18.90;43.40
29775;DHT22;16676;51.202;6.774;2023-02-28T08:03:51;19.30;44.10
29775;DHT22;16676;51.202;6.774;2023-02-28T08:07:55;19.70;44.30
29775;DHT22;16676;51.202;6.774;2023-02-28T08:11:57;20.10;44.70
29775;DHT22;16676;51.202;6.774;2023-02-28T08:16:01;20.40;44.90
29775;DHT22;16676;51.202;6.774;2023-02-28T08:20:04;20.70;44.90
29775;DHT22;16676;51.202;6.774;2023-02-28T08:24:07;21.20;44.70
29775;DHT22;16676;51.202;6.774;2023-02-28T08:28:09;22.50;42.40
29775;DHT22;16676;51.202;6.774;2023-02-28T08:32:12;23.80;39.50
29775;DHT22;16676;51.202;6.774;2023-02-28T08:36:14;24.40;38.30
29775;DHT22;16676;51.202;6.774;2023-02-28T08:40:16;24.20;38.80
29775;DHT22;16676;51.202;6.774;2023-02-28T08:44:19;24.00;39.80
29775;DHT22;16676;51.202;6.774;2023-02-28T08:48:23;23.60;41.20
29775;DHT22;16676;51.202;6.774;2023-02-28T08:52:25;23.20;42.40
29775;DHT22;16676;51.202;6.774;2023-02-28T08:56:27;22.80;43.60
29775;DHT22;16676;51.202;6.774;2023-02-28T09:00:29;22.50;44.20
29775;DHT22;16676;51.202;6.774;2023-02-28T09:04:33;22.20;45.40
29775;DHT22;16676;51.202;6.774;2023-02-28T09:08:35;22.00;46.00
29775;DHT22;16676;51.202;6.774;2023-02-28T09:12:37;21.80;46.80
29775;DHT22;16676;51.202;6.774;2023-02-28T09:16:39;21.70;47.50
29775;DHT22;16676;51.202;6.774;2023-02-28T09:20:43;21.40;48.50
29775;DHT22;16676;51.202;6.774;2023-02-28T09:24:45;21.10;49.30
29775;DHT22;16676;51.202;6.774;2023-02-28T09:28:47;21.00;49.90
29775;DHT22;16676;51.202;6.774;2023-02-28T09:32:49;21.00;50.30
29775;DHT22;16676;51.202;6.774;2023-02-28T09:36:54;21.00;50.70
29775;DHT22;16676;51.202;6.774;2023-02-28T09:40:59;21.00;50.90
29775;DHT22;16676;51.202;6.774;2023-02-28T09:45:06;21.00;51.20
29775;DHT22;16676;51.202;6.774;2023-02-28T09:49:15;20.90;51.50
29775;DHT22;16676;51.202;6.774;2023-02-28T09:53:24;21.00;51.80
29775;DHT22;16676;51.202;6.774;2023-02-28T09:57:35;20.90;52.10
29775;DHT22;16676;51.202;6.774;2023-02-28T10:01:45;20.70;52.40
29775;DHT22;16676;51.202;6.774;2023-02-28T10:05:53;20.70;52.70
29775;DHT22;16676;51.202;6.774;2023-02-28T10:09:59;20.80;52.80
29775;DHT22;16676;51.202;6.774;2023-02-28T10:14:06;20.90;52.80
29775;DHT22;16676;51.202;6.774;2023-02-28T10:18:14;20.90;52.90
29775;DHT22;16676;51.202;6.774;2023-02-28T10:22:20;20.90;53.20
29775;DHT22;16676;51.202;6.774;2023-02-28T10:26:26;20.90;53.20
29775;DHT22;16676;51.202;6.774;2023-02-28T10:30:30;20.90;53.10
29775;DHT22;16676;51.202;6.774;2023-02-28T10:34:32;20.90;52.90
29775;DHT22;16676;51.202;6.774;2023-02-28T10:38:37;20.90;52.70
29775;DHT22;16676;51.202;6.774;2023-02-28T10:42:40;20.90;53.20
29775;DHT22;16676;51.202;6.774;2023-02-28T10:46:43;20.90;53.10
29775;DHT22;16676;51.202;6.774;2023-02-28T10:50:51;21.00;52.90
29775;DHT22;16676;51.202;6.774;2023-02-28T10:55:14;21.10;53.00
29775;DHT22;16676;51.202;6.774;2023-02-28T10:59:28;21.10;53.20
29775;DHT22;16676;51.202;6.774;2023-02-28T11:03:32;21.20;53.40
29775;DHT22;16676;51.202;6.774;2023-02-28T11:07:34;21.20;53.50
29775;DHT22;16676;51.202;6.774;2023-02-28T11:11:43;21.20;53.50
29775;DHT22;16676;51.202;6.774;2023-02-28T11:15:52;21.30;53.20
29775;DHT22;16676;51.202;6.774;2023-02-28T11:19:57;21.30;53.50
29775;DHT22;16676;51.202;6.774;2023-02-28T11:24:02;21.40;53.80
29775;DHT22;16676;51.202;6.774;2023-02-28T11:28:22;21.40;53.70
29775;DHT22;16676;51.202;6.774;2023-02-28T11:32:26;21.40;53.70
29775;DHT22;16676;51.202;6.774;2023-02-28T11:36:31;21.40;53.90
29775;DHT22;16676;51.202;6.774;2023-02-28T11:40:41;21.50;54.00
29775;DHT22;16676;51.202;6.774;2023-02-28T11:44:58;21.50;53.80
29775;DHT22;16676;51.202;6.774;2023-02-28T11:49:15;21.60;53.80
29775;DHT22;16676;51.202;6.774;2023-02-28T11:53:30;21.60;53.40
29775;DHT22;16676;51.202;6.774;2023-02-28T11:57:49;21.60;53.70
29775;DHT22;16676;51.202;6.774;2023-02-28T12:02:20;21.70;53.60
29775;DHT22;16676;51.202;6.774;2023-02-28T12:06:30;21.80;53.80
29775;DHT22;16676;51.202;6.774;2023-02-28T12:10:37;21.90;53.90
29775;DHT22;16676;51.202;6.774;2023-02-28T12:15:03;21.90;54.00
29775;DHT22;16676;51.202;6.774;2023-02-28T12:19:16;21.90;54.00
29775;DHT22;16676;51.202;6.774;2023-02-28T12:23:41;21.90;54.00
29775;DHT22;16676;51.202;6.774;2023-02-28T12:27:47;22.00;54.20
29775;DHT22;16676;51.202;6.774;2023-02-28T12:31:52;22.00;54.20
29775;DHT22;16676;51.202;6.774;2023-02-28T12:35:56;22.00;54.20
29775;DHT22;16676;51.202;6.774;2023-02-28T12:40:03;22.00;54.20
29775;DHT22;16676;51.202;6.774;2023-02-28T12:44:11;22.00;54.20
29775;DHT22;16676;51.202;6.774;2023-02-28T12:48:17;22.10;54.20
29775;DHT22;16676;51.202;6.774;2023-02-28T12:52:25;22.10;54.20
29775;DHT22;16676;51.202;6.774;2023-02-28T12:56:37;22.20;54.20
29775;DHT22;16676;51.202;6.774;2023-02-28T13:00:55;22.20;54.20
29775;DHT22;16676;51.202;6.774;2023-02-28T13:05:12;22.20;54.10
29775;DHT22;16676;51.202;6.774;2023-02-28T13:09:18;22.20;54.00
29775;DHT22;16676;51.202;6.774;2023-02-28T13:13:24;22.30;54.00
29775;DHT22;16676;51.202;6.774;2023-02-28T13:17:30;22.30;53.90
29775;DHT22;16676;51.202;6.774;2023-02-28T13:21:42;22.30;53.90
29775;DHT22;16676;51.202;6.774;2023-02-28T13:25:51;22.30;54.00
29775;DHT22;16676;51.202;6.774;2023-02-28T13:29:56;22.00;43.50
29775;DHT22;16676;51.202;6.774;2023-02-28T13:34:19;21.70;44.60
29775;DHT22;16676;51.202;6.774;2023-02-28T13:38:25;21.50;41.10
29775;DHT22;16676;51.202;6.774;2023-02-28T13:42:34;21.30;40.30
29775;DHT22;16676;51.202;6.774;2023-02-28T13:47:19;21.20;39.30
29775;DHT22;16676;51.202;6.774;2023-02-28T13:51:38;21.00;39.00
29775;DHT22;16676;51.202;6.774;2023-02-28T13:55:45;20.90;37.90
29775;DHT22;16676;51.202;6.774;2023-02-28T13:59:55;20.70;38.70
29775;DHT22;16676;51.202;6.774;2023-02-28T14:04:29;20.60;37.70
29775;DHT22;16676;51.202;6.774;2023-02-28T14:08:35;20.50;37.40
29775;DHT22;16676;51.202;6.774;2023-02-28T14:12:58;20.40;37.50
29775;DHT22;16676;51.202;6.774;2023-02-28T14:17:01;20.30;37.60
29775;DHT22;16676;51.202;6.774;2023-02-28T14:21:14;20.30;38.60
29775;DHT22;16676;51.202;6.774;2023-02-28T14:25:24;20.30;37.10
29775;DHT22;16676;51.202;6.774;2023-02-28T14:29:59;20.20;39.00
29775;DHT22;16676;51.202;6.774;2023-02-28T14:34:25;20.10;39.30
29775;DHT22;16676;51.202;6.774;2023-02-28T14:38:33;20.00;42.00
29775;DHT22;16676;51.202;6.774;2023-02-28T14:42:37;20.00;41.30
29775;DHT22;16676;51.202;6.774;2023-02-28T14:46:43;19.90;40.00
29775;DHT22;16676;51.202;6.774;2023-02-28T14:50:49;19.30;41.20
29775;DHT22;16676;51.202;6.774;2023-02-28T14:54:55;18.00;37.80
29775;DHT22;16676;51.202;6.774;2023-02-28T14:58:57;17.10;37.20
29775;DHT22;16676;51.202;6.774;2023-02-28T15:03:01;16.40;36.10
29775;DHT22;16676;51.202;6.774;2023-02-28T15:07:19;16.00;36.70
29775;DHT22;16676;51.202;6.774;2023-02-28T15:11:23;15.70;37.40
29775;DHT22;16676;51.202;6.774;2023-02-28T15:15:32;15.60;36.90
29775;DHT22;16676;51.202;6.774;2023-02-28T15:19:39;15.50;35.90
29775;DHT22;16676;51.202;6.774;2023-02-28T15:23:46;16.20;42.80
29775;DHT22;16676;51.202;6.774;2023-02-28T15:27:53;16.90;41.40
29775;DHT22;16676;51.202;6.774;2023-02-28T15:32:02;17.30;45.20
29775;DHT22;16676;51.202;6.774;2023-02-28T15:36:07;17.60;46.00
29775;DHT22;16676;51.202;6.774;2023-02-28T15:40:16;17.90;48.40
29775;DHT22;16676;51.202;6.774;2023-02-28T15:44:27;18.00;50.20
29775;DHT22;16676;51.202;6.774;2023-02-28T15:48:32;18.10;52.10
29775;DHT22;16676;51.202;6.774;2023-02-28T15:52:38;18.20;53.30
29775;DHT22;16676;51.202;6.774;2023-02-28T15:56:44;18.30;54.40
29775;DHT22;16676;51.202;6.774;2023-02-28T16:01:07;18.40;56.40
29775;DHT22;16676;51.202;6.774;2023-02-28T16:05:29;18.40;57.60
29775;DHT22;16676;51.202;6.774;2023-02-28T16:09:32;18.40;58.50
29775;DHT22;16676;51.202;6.774;2023-02-28T16:13:34;18.40;59.50
29775;DHT22;16676;51.202;6.774;2023-02-28T16:17:38;18.40;58.90
29775;DHT22;16676;51.202;6.774;2023-02-28T16:21:40;18.40;60.00
29775;DHT22;16676;51.202;6.774;2023-02-28T16:25:44;18.40;60.20
29775;DHT22;16676;51.202;6.774;2023-02-28T16:29:47;18.40;60.60
29775;DHT22;16676;51.202;6.774;2023-02-28T16:33:50;18.40;61.50
29775;DHT22;16676;51.202;6.774;2023-02-28T16:37:53;18.30;62.10
29775;DHT22;16676;51.202;6.774;2023-02-28T16:41:55;18.30;63.00
29775;DHT22;16676;51.202;6.774;2023-02-28T16:45:57;18.30;63.10
29775;DHT22;16676;51.202;6.774;2023-02-28T16:50:01;18.30;63.60
29775;DHT22;16676;51.202;6.774;2023-02-28T16:54:03;18.30;63.90
29775;DHT22;16676;51.202;6.774;2023-02-28T16:58:05;18.30;64.50
29775;DHT22;16676;51.202;6.774;2023-02-28T17:02:08;18.20;64.90
29775;DHT22;16676;51.202;6.774;2023-02-28T17:06:19;18.30;65.50
29775;DHT22;16676;51.202;6.774;2023-02-28T17:10:24;18.20;66.20
29775;DHT22;16676;51.202;6.774;2023-02-28T17:14:26;18.20;63.80
29775;DHT22;16676;51.202;6.774;2023-02-28T17:18:28;18.20;59.80
29775;DHT22;16676;51.202;6.774;2023-02-28T17:22:35;18.40;58.40
29775;DHT22;16676;51.202;6.774;2023-02-28T17:26:38;18.30;58.80
29775;DHT22;16676;51.202;6.774;2023-02-28T17:30:40;18.40;58.90
29775;DHT22;16676;51.202;6.774;2023-02-28T17:34:47;18.40;58.40
29775;DHT22;16676;51.202;6.774;2023-02-28T17:38:51;18.40;58.90
29775;DHT22;16676;51.202;6.774;2023-02-28T17:42:53;18.40;59.00
29775;DHT22;16676;51.202;6.774;2023-02-28T17:46:57;18.40;59.00
29775;DHT22;16676;51.202;6.774;2023-02-28T17:51:00;18.40;58.60
29775;DHT22;16676;51.202;6.774;2023-02-28T17:55:04;18.40;58.80
29775;DHT22;16676;51.202;6.774;2023-02-28T17:59:09;18.40;58.30
29775;DHT22;16676;51.202;6.774;2023-02-28T18:03:11;18.40;58.40
29775;DHT22;16676;51.202;6.774;2023-02-28T18:07:13;18.40;58.40
29775;DHT22;16676;51.202;6.774;2023-02-28T18:11:17;18.40;58.20
29775;DHT22;16676;51.202;6.774;2023-02-28T18:15:21;18.40;57.60
29775;DHT22;16676;51.202;6.774;2023-02-28T18:19:24;18.30;57.00
29775;DHT22;16676;51.202;6.774;2023-02-28T18:23:26;18.40;57.20
29775;DHT22;16676;51.202;6.774;2023-02-28T18:27:29;18.30;57.20
29775;DHT22;16676;51.202;6.774;2023-02-28T18:31:31;18.30;57.30
29775;DHT22;16676;51.202;6.774;2023-02-28T18:35:33;18.30;57.50
29775;DHT22;16676;51.202;6.774;2023-02-28T18:39:35;18.20;58.20
29775;DHT22;16676;51.202;6.774;2023-02-28T18:43:38;18.20;57.90
29775;DHT22;16676;51.202;6.774;2023-02-28T18:47:40;18.10;58.10
29775;DHT22;16676;51.202;6.774;2023-02-28T18:51:42;18.20;58.30
29775;DHT22;16676;51.202;6.774;2023-02-28T18:55:44;18.20;58.50
29775;DHT22;16676;51.202;6.774;2023-02-28T18:59:48;18.10;58.90
29775;DHT22;16676;51.202;6.774;2023-02-28T19:03:50;18.10;58.80
29775;DHT22;16676;51.202;6.774;2023-02-28T19:07:52;18.10;59.10
29775;DHT22;16676;51.202;6.774;2023-02-28T19:11:54;18.10;59.20
29775;DHT22;16676;51.202;6.774;2023-02-28T19:16:02;18.10;59.90
29775;DHT22;16676;51.202;6.774;2023-02-28T19:20:04;18.00;59.80
29775;DHT22;16676;51.202;6.774;2023-02-28T19:24:07;18.00;60.10
29775;DHT22;16676;51.202;6.774;2023-02-28T19:28:09;18.00;60.70
29775;DHT22;16676;51.202;6.774;2023-02-28T19:32:12;18.00;60.00
29775;DHT22;16676;51.202;6.774;2023-02-28T19:36:15;18.00;60.20
29775;DHT22;16676;51.202;6.774;2023-02-28T19:40:17;18.00;60.00
29775;DHT22;16676;51.202;6.774;2023-02-28T19:44:19;18.00;60.10
29775;DHT22;16676;51.202;6.774;2023-02-28T19:48:22;18.00;59.90
29775;DHT22;16676;51.202;6.774;2023-02-28T19:52:27;18.00;60.00
29775;DHT22;16676;51.202;6.774;2023-02-28T19:56:29;17.90;60.30
29775;DHT22;16676;51.202;6.774;2023-02-28T20:00:31;17.90;60.20
29775;DHT22;16676;51.202;6.774;2023-02-28T20:04:34;17.90;60.00
29775;DHT22;16676;51.202;6.774;2023-02-28T20:08:37;17.90;60.10
29775;DHT22;16676;51.202;6.774;2023-02-28T20:12:39;17.90;61.00
29775;DHT22;16676;51.202;6.774;2023-02-28T20:16:41;17.90;60.90
29775;DHT22;16676;51.202;6.774;2023-02-28T20:20:44;17.90;61.40
29775;DHT22;16676;51.202;6.774;2023-02-28T20:25:06;17.90;61.50
29775;DHT22;16676;51.202;6.774;2023-02-28T20:29:30;17.80;61.70
29775;DHT22;16676;51.202;6.774;2023-02-28T20:33:52;17.80;62.20
29775;DHT22;16676;51.202;6.774;2023-02-28T20:38:15;17.80;62.50
29775;DHT22;16676;51.202;6.774;2023-02-28T20:42:17;17.80;62.30
29775;DHT22;16676;51.202;6.774;2023-02-28T20:46:19;17.80;62.40
29775;DHT22;16676;51.202;6.774;2023-02-28T20:50:21;17.80;62.60
29775;DHT22;16676;51.202;6.774;2023-02-28T20:54:24;17.80;62.90
29775;DHT22;16676;51.202;6.774;2023-02-28T20:58:30;17.70;63.30
29775;DHT22;16676;51.202;6.774;2023-02-28T21:02:33;17.70;63.00
29775;DHT22;16676;51.202;6.774;2023-02-28T21:06:36;17.80;62.20
29775;DHT22;16676;51.202;6.774;2023-02-28T21:10:39;17.70;62.40
29775;DHT22;16676;51.202;6.774;2023-02-28T21:14:41;17.80;62.20
29775;DHT22;16676;51.202;6.774;2023-02-28T21:18:44;17.80;62.40
29775;DHT22;16676;51.202;6.774;2023-02-28T21:22:46;17.80;62.50
29775;DHT22;16676;51.202;6.774;2023-02-28T21:26:49;17.80;62.50
29775;DHT22;16676;51.202;6.774;2023-02-28T21:30:53;17.80;62.50
29775;DHT22;16676;51.202;6.774;2023-02-28T21:34:55;17.70;62.70
29775;DHT22;16676;51.202;6.774;2023-02-28T21:38:58;17.70;62.80
29775;DHT22;16676;51.202;6.774;2023-02-28T21:43:03;17.70;62.90
29775;DHT22;16676;51.202;6.774;2023-02-28T21:47:05;17.70;63.20
29775;DHT22;16676;51.202;6.774;2023-02-28T21:51:12;17.60;63.30
29775;DHT22;16676;51.202;6.774;2023-02-28T21:55:14;17.70;63.50
29775;DHT22;16676;51.202;6.774;2023-02-28T21:59:18;17.60;63.60
29775;DHT22;16676;51.202;6.774;2023-02-28T22:03:19;17.60;63.80
29775;DHT22;16676;51.202;6.774;2023-02-28T22:07:21;17.60;64.10
29775;DHT22;16676;51.202;6.774;2023-02-28T22:11:24;17.60;64.20
29775;DHT22;16676;51.202;6.774;2023-02-28T22:15:28;17.60;64.40
29775;DHT22;16676;51.202;6.774;2023-02-28T22:19:30;17.60;64.50
29775;DHT22;16676;51.202;6.774;2023-02-28T22:23:31;17.60;64.70
29775;DHT22;16676;51.202;6.774;2023-02-28T22:27:33;17.60;64.80
29775;DHT22;16676;51.202;6.774;2023-02-28T22:31:37;17.50;65.00
29775;DHT22;16676;51.202;6.774;2023-02-28T22:35:39;17.50;65.20
29775;DHT22;16676;51.202;6.774;2023-02-28T22:39:41;17.50;65.00
29775;DHT22;16676;51.202;6.774;2023-02-28T22:43:43;17.50;65.60
29775;DHT22;16676;51.202;6.774;2023-02-28T22:47:48;17.50;65.20
29775;DHT22;16676;51.202;6.774;2023-02-28T22:51:50;17.50;65.50
29775;DHT22;16676;51.202;6.774;2023-02-28T22:55:53;17.40;65.50
29775;DHT22;16676;51.202;6.774;2023-02-28T22:59:55;17.40;65.60
29775;DHT22;16676;51.202;6.774;2023-02-28T23:03:59;17.40;65.60
29775;DHT22;16676;51.202;6.774;2023-02-28T23:08:01;17.40;65.70
29775;DHT22;16676;51.202;6.774;2023-02-28T23:12:03;17.40;65.70
29775;DHT22;16676;51.202;6.774;2023-02-28T23:16:06;17.40;65.60
29775;DHT22;16676;51.202;6.774;2023-02-28T23:20:11;17.40;65.80
29775;DHT22;16676;51.202;6.774;2023-02-28T23:24:15;17.30;65.90
29775;DHT22;16676;51.202;6.774;2023-02-28T23:28:17;17.30;65.90
29775;DHT22;16676;51.202;6.774;2023-02-28T23:32:19;17.30;65.90
29775;DHT22;16676;51.202;6.774;2023-02-28T23:36:23;17.30;66.20
29775;DHT22;16676;51.202;6.774;2023-02-28T23:40:25;17.30;66.00
29775;DHT22;16676;51.202;6.774;2023-02-28T23:44:27;17.30;66.10
29775;DHT22;16676;51.202;6.774;2023-02-28T23:48:29;17.30;66.20
29775;DHT22;16676;51.202;6.774;2023-02-28T23:52:32;17.30;66.30
29775;DHT22;16676;51.202;6.774;2023-02-28T23:56:34;17.30;66.30
